createdAt,value
2019-03-19T00:01:50.238Z,3.20
2019-03-19T00:04:20.104Z,3.20
2019-03-19T00:06:49.259Z,3.00
2019-03-19T00:09:18.720Z,2.90
2019-03-19T00:11:48.001Z,2.80
2019-03-19T00:14:17.547Z,2.90
2019-03-19T00:16:46.550Z,2.90
2019-03-19T00:19:15.664Z,2.90
2019-03-19T00:21:44.789Z,2.90
2019-03-19T00:24:13.970Z,3.00
2019-03-19T00:26:43.446Z,3.10
2019-03-19T00:29:12.935Z,3.10
2019-03-19T00:31:42.621Z,3.10
2019-03-19T00:34:11.787Z,3.20
2019-03-19T00:36:41.058Z,3.20
2019-03-19T00:39:10.312Z,3.20
2019-03-19T00:41:39.460Z,3.20
2019-03-19T00:44:09.276Z,3.20
2019-03-19T00:46:38.725Z,3.20
2019-03-19T00:49:08.492Z,3.20
2019-03-19T00:51:38.011Z,3.20
2019-03-19T00:54:07.197Z,3.30
2019-03-19T00:56:36.338Z,3.20
2019-03-19T00:59:06.158Z,3.20
2019-03-19T01:01:35.904Z,3.30
2019-03-19T01:04:05.696Z,3.30
2019-03-19T01:06:35.145Z,3.30
2019-03-19T01:09:05.984Z,3.30
2019-03-19T01:11:36.055Z,3.30
2019-03-19T01:14:05.137Z,3.30
2019-03-19T01:16:34.527Z,3.20
2019-03-19T01:19:03.614Z,3.20
2019-03-19T01:21:33.516Z,3.20
2019-03-19T01:24:02.940Z,3.20
2019-03-19T01:26:32.067Z,3.20
2019-03-19T01:29:01.469Z,3.10
2019-03-19T01:31:31.232Z,3.10
2019-03-19T01:34:00.503Z,3.10
2019-03-19T01:36:30.236Z,3.10
2019-03-19T01:38:59.995Z,3.00
2019-03-19T01:41:29.903Z,2.90
2019-03-19T01:43:59.359Z,3.00
2019-03-19T01:46:28.824Z,2.90
2019-03-19T01:48:57.967Z,2.80
2019-03-19T01:51:27.424Z,2.80
2019-03-19T01:53:56.539Z,2.70
2019-03-19T01:56:25.682Z,2.70
2019-03-19T01:58:55.143Z,2.70
2019-03-19T02:01:24.953Z,2.70
2019-03-19T02:03:54.141Z,2.70
2019-03-19T02:06:23.868Z,2.70
2019-03-19T02:08:53.356Z,2.60
2019-03-19T02:11:22.798Z,2.50
2019-03-19T02:13:52.221Z,2.50
2019-03-19T02:16:22.252Z,2.50
2019-03-19T02:18:51.628Z,2.40
2019-03-19T02:21:21.140Z,2.40
2019-03-19T02:23:50.494Z,2.30
2019-03-19T02:26:19.952Z,2.30
2019-03-19T02:28:49.047Z,2.30
2019-03-19T02:31:18.124Z,2.30
2019-03-19T02:33:47.239Z,2.20
2019-03-19T02:36:17.465Z,2.20
2019-03-19T02:38:47.277Z,2.20
2019-03-19T02:41:16.364Z,2.10
2019-03-19T02:43:45.891Z,2.10
2019-03-19T02:46:14.987Z,2.10
2019-03-19T02:48:44.466Z,2.10
2019-03-19T02:51:13.497Z,2.20
2019-03-19T02:53:42.589Z,2.10
2019-03-19T02:56:12.717Z,2.00
2019-03-19T02:58:41.721Z,2.10
2019-03-19T03:01:10.881Z,2.00
2019-03-19T03:03:40.964Z,2.00
2019-03-19T03:06:10.223Z,1.90
2019-03-19T03:08:39.283Z,1.80
2019-03-19T03:11:09.091Z,1.80
2019-03-19T03:13:38.522Z,1.70
2019-03-19T03:16:07.954Z,1.70
2019-03-19T03:18:38.133Z,1.70
2019-03-19T03:21:07.382Z,1.60
2019-03-19T03:23:36.510Z,1.60
2019-03-19T03:26:05.917Z,1.60
2019-03-19T03:28:35.704Z,1.50
2019-03-19T03:31:05.633Z,1.50
2019-03-19T03:33:35.148Z,1.50
2019-03-19T03:36:04.977Z,1.50
2019-03-19T03:38:34.396Z,1.50
2019-03-19T03:41:03.701Z,1.40
2019-03-19T03:43:32.890Z,1.30
2019-03-19T03:46:02.274Z,1.30
2019-03-19T03:48:31.673Z,1.20
2019-03-19T03:51:01.121Z,1.10
2019-03-19T03:53:30.212Z,1.10
2019-03-19T03:56:00.197Z,1.00
2019-03-19T03:58:29.925Z,1.00
2019-03-19T04:00:59.054Z,0.90
2019-03-19T04:03:28.847Z,0.90
2019-03-19T04:05:57.913Z,1.00
2019-03-19T04:08:27.553Z,0.90
2019-03-19T04:10:56.984Z,0.90
2019-03-19T04:13:26.471Z,0.90
2019-03-19T04:15:55.932Z,1.00
2019-03-19T04:18:25.391Z,1.00
2019-03-19T04:20:54.984Z,1.00
2019-03-19T04:23:24.460Z,1.00
2019-03-19T04:25:53.554Z,0.90
2019-03-19T04:28:23.311Z,0.90
2019-03-19T04:30:53.296Z,0.90
2019-03-19T04:33:23.364Z,1.00
2019-03-19T04:35:52.865Z,1.00
2019-03-19T04:38:23.042Z,1.10
2019-03-19T04:40:52.141Z,1.10
2019-03-19T04:43:21.262Z,1.10
2019-03-19T04:45:50.413Z,1.10
2019-03-19T04:48:20.029Z,1.10
2019-03-19T04:50:49.862Z,1.00
2019-03-19T04:53:19.249Z,1.10
2019-03-19T04:55:48.640Z,1.10
2019-03-19T04:58:17.781Z,1.10
2019-03-19T05:00:47.618Z,1.00
2019-03-19T05:03:17.009Z,1.00
2019-03-19T05:05:46.511Z,1.00
2019-03-19T05:08:16.052Z,1.00
2019-03-19T05:10:45.667Z,1.00
2019-03-19T05:13:14.741Z,1.10
2019-03-19T05:15:44.277Z,1.00
2019-03-19T05:18:13.749Z,1.00
2019-03-19T05:20:43.438Z,1.00
2019-03-19T05:23:12.809Z,1.00
2019-03-19T05:25:41.971Z,1.00
2019-03-19T05:28:11.056Z,1.10
2019-03-19T05:30:40.539Z,1.00
2019-03-19T05:33:09.647Z,1.00
2019-03-19T05:35:38.753Z,1.00
2019-03-19T05:38:08.585Z,1.00
2019-03-19T05:40:38.024Z,1.10
2019-03-19T05:43:07.133Z,1.10
2019-03-19T05:45:36.283Z,1.20
2019-03-19T05:48:05.399Z,1.20
2019-03-19T05:50:34.510Z,1.40
2019-03-19T05:53:03.684Z,1.70
2019-03-19T05:55:33.129Z,1.70
2019-03-19T05:58:02.182Z,1.80
2019-03-19T06:00:33.009Z,2.00
2019-03-19T06:03:02.377Z,2.00
2019-03-19T06:05:31.776Z,2.10
2019-03-19T06:08:00.906Z,2.20
2019-03-19T06:10:30.679Z,2.20
2019-03-19T06:13:00.122Z,2.40
2019-03-19T06:15:29.527Z,2.50
2019-03-19T06:17:58.633Z,2.60
2019-03-19T06:20:28.379Z,2.70
2019-03-19T06:22:57.461Z,2.80
2019-03-19T06:25:26.826Z,2.80
2019-03-19T06:28:00.714Z,2.90
2019-03-19T06:30:27.211Z,2.90
2019-03-19T06:32:56.902Z,3.00
2019-03-19T06:35:25.981Z,3.10
2019-03-19T06:37:55.539Z,3.30
2019-03-19T06:40:24.769Z,3.40
2019-03-19T06:42:53.842Z,3.50
2019-03-19T06:45:23.383Z,3.50
2019-03-19T06:47:53.253Z,3.60
2019-03-19T06:50:22.861Z,3.70
2019-03-19T06:52:51.949Z,3.80
2019-03-19T06:55:21.066Z,3.90
2019-03-19T06:57:50.856Z,4.00
2019-03-19T07:00:20.000Z,3.90
2019-03-19T07:02:49.081Z,4.00
2019-03-19T07:05:18.199Z,4.10
2019-03-19T07:07:47.374Z,4.20
2019-03-19T07:10:16.467Z,4.20
2019-03-19T07:12:45.900Z,4.30
2019-03-19T07:15:15.321Z,4.40
2019-03-19T07:17:44.478Z,4.50
2019-03-19T07:20:14.612Z,4.50
2019-03-19T07:22:43.666Z,4.60
2019-03-19T07:25:12.890Z,4.70
2019-03-19T07:27:42.437Z,4.80
2019-03-19T07:30:13.843Z,4.80
2019-03-19T07:32:43.025Z,5.00
2019-03-19T07:35:12.170Z,5.00
2019-03-19T07:37:41.253Z,5.10
2019-03-19T07:40:11.077Z,5.10
2019-03-19T07:42:40.189Z,5.20
2019-03-19T07:45:12.089Z,5.30
2019-03-19T07:47:41.174Z,5.30
2019-03-19T07:50:11.768Z,5.30
2019-03-19T07:52:41.072Z,5.40
2019-03-19T07:55:10.151Z,5.50
2019-03-19T07:57:40.263Z,5.50
2019-03-19T08:00:10.834Z,5.60
2019-03-19T08:02:40.415Z,5.50
2019-03-19T08:05:09.835Z,5.50
2019-03-19T08:07:39.252Z,5.50
2019-03-19T08:10:09.218Z,5.50
2019-03-19T08:12:38.277Z,5.50
2019-03-19T08:15:09.122Z,5.60
2019-03-19T08:17:38.549Z,5.60
2019-03-19T08:20:08.890Z,5.60
2019-03-19T08:22:38.052Z,5.80
2019-03-19T08:25:08.810Z,5.90
2019-03-19T08:27:38.395Z,5.90
2019-03-19T08:30:09.687Z,5.70
2019-03-19T08:32:39.442Z,5.80
2019-03-19T08:35:08.823Z,5.60
2019-03-19T08:37:38.246Z,5.50
2019-03-19T08:40:08.704Z,5.50
2019-03-19T08:42:37.779Z,5.50
2019-03-19T08:45:08.536Z,5.40
2019-03-19T08:47:38.523Z,5.60
2019-03-19T08:50:09.491Z,5.80
2019-03-19T08:52:38.918Z,5.90
2019-03-19T08:55:08.702Z,6.00
2019-03-19T08:57:38.182Z,6.10
2019-03-19T09:00:10.055Z,6.10
2019-03-19T09:02:39.808Z,5.90
2019-03-19T09:05:09.078Z,6.10
2019-03-19T09:07:38.855Z,6.30
2019-03-19T09:10:08.736Z,6.40
2019-03-19T09:12:38.553Z,6.50
2019-03-19T09:15:09.578Z,6.40
2019-03-19T09:17:38.818Z,6.70
2019-03-19T09:20:09.858Z,6.60
2019-03-19T09:22:39.573Z,6.60
2019-03-19T09:25:09.218Z,6.70
2019-03-19T09:27:38.246Z,6.60
2019-03-19T09:30:08.935Z,6.50
2019-03-19T09:32:38.014Z,6.50
2019-03-19T09:35:07.255Z,6.50
2019-03-19T09:37:44.088Z,6.50
2019-03-19T09:40:09.612Z,6.40
2019-03-19T09:42:39.537Z,6.40
2019-03-19T09:45:08.968Z,6.30
2019-03-19T09:47:38.599Z,6.30
2019-03-19T09:50:09.009Z,6.00
2019-03-19T09:52:38.740Z,5.80
2019-03-19T09:55:08.528Z,5.80
2019-03-19T09:57:38.278Z,5.90
2019-03-19T10:00:09.280Z,5.90
2019-03-19T10:02:38.775Z,5.90
2019-03-19T10:05:07.883Z,5.90
2019-03-19T10:07:37.158Z,5.90
2019-03-19T10:10:06.986Z,5.80
2019-03-19T10:12:36.051Z,6.00
2019-03-19T10:15:05.678Z,6.20
2019-03-19T10:17:35.058Z,6.10
2019-03-19T10:20:04.982Z,6.20
2019-03-19T10:22:34.787Z,6.50
2019-03-19T10:25:04.162Z,6.80
2019-03-19T10:27:33.296Z,7.40
2019-03-19T10:30:02.266Z,7.60
2019-03-19T10:32:31.619Z,7.70
2019-03-19T10:35:01.481Z,7.70
2019-03-19T10:37:30.546Z,7.80
2019-03-19T10:39:59.608Z,7.80
2019-03-19T10:42:28.939Z,7.70
2019-03-19T10:44:58.398Z,7.50
2019-03-19T10:47:27.459Z,7.20
2019-03-19T10:49:57.298Z,7.40
2019-03-19T10:52:26.798Z,7.00
2019-03-19T10:54:56.252Z,7.20
2019-03-19T10:57:25.274Z,7.20
2019-03-19T10:59:59.429Z,7.30
2019-03-19T11:02:28.872Z,7.50
2019-03-19T11:04:57.855Z,7.80
2019-03-19T11:07:27.336Z,7.80
2019-03-19T11:09:57.095Z,7.60
2019-03-19T11:12:26.530Z,7.50
2019-03-19T11:14:55.604Z,7.80
2019-03-19T11:17:25.244Z,7.90
2019-03-19T11:19:54.737Z,7.60
2019-03-19T11:22:24.034Z,7.70
2019-03-19T11:24:53.366Z,7.70
2019-03-19T11:27:22.417Z,7.60
2019-03-19T11:29:59.731Z,7.60
2019-03-19T11:32:22.996Z,7.60
2019-03-19T11:34:52.162Z,7.70
2019-03-19T11:37:21.963Z,8.40
2019-03-19T11:39:52.008Z,8.50
2019-03-19T11:42:21.458Z,8.50
2019-03-19T11:44:50.778Z,8.40
2019-03-19T11:47:20.265Z,7.80
2019-03-19T11:49:49.704Z,7.80
2019-03-19T11:52:18.789Z,7.70
2019-03-19T11:54:48.067Z,7.70
2019-03-19T11:57:17.904Z,7.70
2019-03-19T11:59:47.564Z,7.60
2019-03-19T12:02:25.581Z,7.80
2019-03-19T12:04:48.042Z,7.90
2019-03-19T12:07:17.358Z,7.70
2019-03-19T12:09:46.782Z,7.80
2019-03-19T12:12:16.244Z,7.80
2019-03-19T12:14:47.264Z,7.80
2019-03-19T12:17:16.517Z,7.60
2019-03-19T12:19:45.587Z,7.50
2019-03-19T12:22:15.647Z,7.40
2019-03-19T12:24:46.174Z,7.40
2019-03-19T12:27:15.571Z,7.50
2019-03-19T12:29:45.256Z,7.60
2019-03-19T12:32:15.452Z,7.70
2019-03-19T12:34:44.438Z,7.60
2019-03-19T12:37:14.613Z,7.50
2019-03-19T12:39:44.018Z,7.30
2019-03-19T12:42:13.960Z,7.40
2019-03-19T12:44:43.459Z,7.50
2019-03-19T12:47:13.000Z,7.20
2019-03-19T12:49:42.547Z,7.30
2019-03-19T12:52:11.920Z,7.30
2019-03-19T12:54:41.763Z,7.30
2019-03-19T12:57:11.097Z,7.50
2019-03-19T12:59:42.511Z,7.60
2019-03-19T13:02:11.746Z,7.70
2019-03-19T13:04:41.068Z,7.80
2019-03-19T13:07:10.264Z,7.70
2019-03-19T13:09:39.460Z,7.70
2019-03-19T13:12:09.222Z,7.60
2019-03-19T13:14:39.001Z,7.50
2019-03-19T13:17:08.713Z,7.90
2019-03-19T13:19:38.104Z,8.20
2019-03-19T13:22:07.162Z,8.30
2019-03-19T13:24:36.242Z,8.40
2019-03-19T13:27:05.312Z,8.40
2019-03-19T13:29:34.512Z,8.40
2019-03-19T13:32:04.645Z,8.50
2019-03-19T13:34:34.007Z,8.80
2019-03-19T13:37:03.808Z,8.50
2019-03-19T13:39:32.974Z,8.40
2019-03-19T13:42:02.087Z,8.60
2019-03-19T13:44:31.539Z,8.50
2019-03-19T13:47:00.534Z,8.40
2019-03-19T13:49:29.619Z,8.00
2019-03-19T13:51:59.004Z,8.10
2019-03-19T13:54:28.113Z,8.20
2019-03-19T13:56:57.253Z,8.10
2019-03-19T13:59:26.852Z,8.00
2019-03-19T14:01:56.787Z,8.10
2019-03-19T14:04:26.517Z,8.20
2019-03-19T14:06:55.517Z,8.20
2019-03-19T14:09:24.494Z,8.30
2019-03-19T14:11:53.976Z,8.20
2019-03-19T14:14:23.392Z,8.20
2019-03-19T14:16:52.824Z,8.00
2019-03-19T14:19:22.601Z,7.90
2019-03-19T14:21:51.663Z,7.90
2019-03-19T14:24:21.318Z,7.80
2019-03-19T14:26:50.733Z,7.80
2019-03-19T14:29:19.824Z,7.90
2019-03-19T14:31:49.272Z,7.90
2019-03-19T14:34:18.630Z,7.80
2019-03-19T14:36:47.780Z,7.80
2019-03-19T14:39:17.546Z,7.90
2019-03-19T14:41:46.954Z,7.90
2019-03-19T14:44:16.971Z,7.90
2019-03-19T14:46:46.044Z,7.90
2019-03-19T14:49:15.517Z,7.90
2019-03-19T14:51:44.894Z,7.90
2019-03-19T14:54:14.307Z,7.90
2019-03-19T14:56:43.853Z,7.90
2019-03-19T14:59:13.037Z,7.90
2019-03-19T15:01:43.050Z,7.90
2019-03-19T15:04:12.555Z,7.90
2019-03-19T15:06:41.634Z,7.70
2019-03-19T15:09:11.643Z,7.70
2019-03-19T15:11:41.153Z,7.60
2019-03-19T15:14:10.929Z,7.50
2019-03-19T15:16:39.994Z,7.40
2019-03-19T15:19:09.801Z,7.40
2019-03-19T15:21:40.181Z,7.40
2019-03-19T15:24:10.050Z,7.40
2019-03-19T15:26:39.116Z,7.50
2019-03-19T15:29:08.640Z,7.50
2019-03-19T15:31:37.724Z,7.40
2019-03-19T15:34:07.496Z,7.40
2019-03-19T15:36:36.593Z,7.40
2019-03-19T15:39:08.342Z,7.40
2019-03-19T15:41:37.740Z,7.40
2019-03-19T15:44:07.637Z,7.40
2019-03-19T15:46:37.469Z,7.40
2019-03-19T15:49:06.817Z,7.40
2019-03-19T15:51:36.080Z,7.40
2019-03-19T15:54:05.200Z,7.40
2019-03-19T15:56:34.687Z,7.40
2019-03-19T15:59:03.817Z,7.50
2019-03-19T16:01:40.407Z,7.40
2019-03-19T16:04:04.140Z,7.40
2019-03-19T16:06:33.873Z,7.40
2019-03-19T16:09:03.420Z,7.40
2019-03-19T16:11:33.057Z,7.30
2019-03-19T16:14:02.165Z,7.30
2019-03-19T16:16:31.715Z,7.30
2019-03-19T16:19:01.956Z,7.20
2019-03-19T16:21:31.157Z,7.20
2019-03-19T16:24:00.289Z,7.10
2019-03-19T16:26:30.108Z,7.20
2019-03-19T16:28:59.274Z,7.20
2019-03-19T16:31:28.744Z,7.20
2019-03-19T16:33:57.827Z,7.10
2019-03-19T16:36:27.230Z,7.00
2019-03-19T16:38:56.374Z,7.00
2019-03-19T16:41:26.281Z,7.00
2019-03-19T16:43:55.387Z,6.90
2019-03-19T16:46:25.160Z,6.90
2019-03-19T16:48:55.418Z,6.80
2019-03-19T16:51:24.641Z,6.80
2019-03-19T16:53:53.823Z,6.80
2019-03-19T16:56:23.944Z,6.70
2019-03-19T16:58:53.611Z,6.70
2019-03-19T17:01:22.951Z,6.60
2019-03-19T17:03:52.465Z,6.50
2019-03-19T17:06:24.245Z,6.50
2019-03-19T17:08:55.446Z,6.50
2019-03-19T17:11:26.628Z,6.40
2019-03-19T17:13:57.529Z,6.40
2019-03-19T17:16:27.135Z,6.30
2019-03-19T17:18:57.566Z,6.20
2019-03-19T17:21:28.665Z,6.20
2019-03-19T17:24:00.098Z,6.20
2019-03-19T17:26:31.702Z,6.10
2019-03-19T17:29:01.293Z,6.00
2019-03-19T17:31:30.719Z,5.90
2019-03-19T17:34:00.843Z,5.80
2019-03-19T17:36:30.248Z,5.70
2019-03-19T17:39:00.059Z,5.60
2019-03-19T17:41:29.365Z,5.50
2019-03-19T17:43:59.072Z,5.50
2019-03-19T17:46:28.708Z,5.30
2019-03-19T17:48:58.006Z,5.30
2019-03-19T17:51:27.523Z,5.30
2019-03-19T17:53:57.213Z,5.20
2019-03-19T17:56:26.583Z,5.10
2019-03-19T17:58:56.163Z,5.00
2019-03-19T18:01:25.764Z,5.00
2019-03-19T18:03:55.344Z,4.90
2019-03-19T18:06:24.745Z,4.80
2019-03-19T18:08:55.067Z,4.80
2019-03-19T18:11:24.705Z,4.70
2019-03-19T18:13:53.868Z,4.70
2019-03-19T18:16:23.117Z,4.70
2019-03-19T18:18:52.680Z,4.60
2019-03-19T18:21:22.633Z,4.50
2019-03-19T18:23:52.450Z,4.50
2019-03-19T18:26:22.306Z,4.50
2019-03-19T18:28:52.063Z,4.40
2019-03-19T18:31:21.974Z,4.30
2019-03-19T18:33:51.708Z,4.30
2019-03-19T18:36:21.335Z,4.10
2019-03-19T18:38:50.896Z,4.00
2019-03-19T18:41:20.395Z,4.00
2019-03-19T18:43:49.639Z,3.90
2019-03-19T18:46:18.913Z,3.90
2019-03-19T18:48:48.152Z,3.90
2019-03-19T18:51:17.718Z,3.80
2019-03-19T18:53:46.975Z,3.80
2019-03-19T18:56:16.606Z,3.80
2019-03-19T18:58:46.078Z,3.70
2019-03-19T19:01:15.684Z,3.60
2019-03-19T19:03:45.055Z,3.60
2019-03-19T19:06:14.403Z,3.50
2019-03-19T19:08:44.122Z,3.50
2019-03-19T19:11:13.809Z,3.50
2019-03-19T19:13:43.550Z,3.40
2019-03-19T19:16:13.010Z,3.40
2019-03-19T19:18:42.155Z,3.30
2019-03-19T19:21:11.478Z,3.30
2019-03-19T19:23:40.556Z,3.20
2019-03-19T19:26:09.719Z,3.20
2019-03-19T19:28:38.912Z,3.10
2019-03-19T19:31:08.405Z,3.10
2019-03-19T19:33:37.703Z,3.00
2019-03-19T19:36:07.296Z,3.00
2019-03-19T19:38:36.963Z,2.90
2019-03-19T19:41:06.968Z,2.80
2019-03-19T19:43:36.126Z,2.80
2019-03-19T19:46:05.316Z,2.80
2019-03-19T19:48:34.498Z,2.70
2019-03-19T19:51:04.343Z,2.70
2019-03-19T19:53:33.983Z,2.60
2019-03-19T19:56:03.219Z,2.50
2019-03-19T19:58:32.483Z,2.50
2019-03-19T20:01:01.605Z,2.40
2019-03-19T20:03:30.842Z,2.40
2019-03-19T20:06:00.424Z,2.40
2019-03-19T20:08:29.598Z,2.40
2019-03-19T20:10:59.050Z,2.40
2019-03-19T20:13:28.892Z,2.20
2019-03-19T20:15:58.129Z,2.30
2019-03-19T20:18:27.400Z,2.20
2019-03-19T20:20:56.931Z,2.10
2019-03-19T20:23:26.129Z,2.00
2019-03-19T20:25:55.318Z,2.00
2019-03-19T20:28:24.877Z,2.00
2019-03-19T20:30:54.399Z,2.00
2019-03-19T20:33:25.068Z,2.00
2019-03-19T20:35:55.735Z,1.90
2019-03-19T20:38:25.190Z,1.80
2019-03-19T20:40:54.452Z,1.80
2019-03-19T20:43:23.850Z,1.80
2019-03-19T20:45:53.482Z,1.80
2019-03-19T20:48:23.081Z,1.70
2019-03-19T20:50:52.448Z,1.80
2019-03-19T20:53:22.064Z,1.80
2019-03-19T20:55:51.237Z,1.70
2019-03-19T20:58:20.427Z,1.70
2019-03-19T21:00:50.009Z,1.60
2019-03-19T21:03:19.797Z,1.50
2019-03-19T21:05:48.997Z,1.50
2019-03-19T21:08:18.482Z,1.50
2019-03-19T21:10:47.729Z,1.50
2019-03-19T21:13:17.520Z,1.50
2019-03-19T21:15:46.979Z,1.40
2019-03-19T21:18:16.138Z,1.40
2019-03-19T21:20:46.687Z,1.30
2019-03-19T21:23:16.596Z,1.30
2019-03-19T21:25:46.442Z,1.40
2019-03-19T21:28:15.917Z,1.30
2019-03-19T21:30:45.132Z,1.30
2019-03-19T21:33:14.235Z,1.30
2019-03-19T21:35:43.809Z,1.20
2019-03-19T21:38:13.056Z,1.20
2019-03-19T21:40:42.926Z,1.10
2019-03-19T21:43:12.116Z,1.10
2019-03-19T21:45:41.374Z,1.10
2019-03-19T21:48:11.214Z,1.00
2019-03-19T21:50:40.717Z,1.00
2019-03-19T21:53:10.361Z,0.90
2019-03-19T21:55:39.595Z,0.90
2019-03-19T21:58:09.068Z,1.00
2019-03-19T22:00:38.335Z,1.00
2019-03-19T22:03:07.419Z,1.00
2019-03-19T22:05:36.605Z,0.90
2019-03-19T22:08:06.751Z,0.90
2019-03-19T22:10:37.036Z,0.80
2019-03-19T22:13:06.216Z,0.80
2019-03-19T22:15:35.891Z,0.80
2019-03-19T22:18:05.516Z,0.80
2019-03-19T22:20:34.578Z,0.70
2019-03-19T22:23:04.442Z,0.70
2019-03-19T22:25:33.931Z,0.70
2019-03-19T22:28:03.313Z,0.70
2019-03-19T22:30:33.303Z,0.70
2019-03-19T22:33:02.881Z,0.60
2019-03-19T22:35:33.017Z,0.60
2019-03-19T22:38:02.499Z,0.60
2019-03-19T22:40:31.953Z,0.60
2019-03-19T22:43:01.133Z,0.60
2019-03-19T22:45:30.561Z,0.60
2019-03-19T22:48:00.358Z,0.60
2019-03-19T22:50:29.479Z,0.50
2019-03-19T22:52:58.909Z,0.50
2019-03-19T22:55:29.426Z,0.50
2019-03-19T22:57:59.762Z,0.50
2019-03-19T23:00:46.679Z,0.50
2019-03-19T23:03:16.083Z,0.50
2019-03-19T23:05:57.129Z,0.50
2019-03-19T23:08:26.649Z,0.40
2019-03-19T23:10:56.130Z,0.50
2019-03-19T23:13:25.275Z,0.50
2019-03-19T23:15:55.196Z,0.60
2019-03-19T23:18:24.710Z,0.60
2019-03-19T23:20:53.794Z,0.60
2019-03-19T23:23:23.687Z,0.60
2019-03-19T23:25:52.850Z,0.60
2019-03-19T23:28:22.292Z,0.60
2019-03-19T23:30:51.444Z,0.60
2019-03-19T23:33:21.154Z,0.50
2019-03-19T23:35:50.618Z,0.50
2019-03-19T23:38:19.776Z,0.40
2019-03-19T23:40:49.945Z,0.40
2019-03-19T23:43:19.045Z,0.30
2019-03-19T23:45:48.130Z,0.40
2019-03-19T23:48:18.028Z,0.30
2019-03-19T23:50:47.445Z,0.30
2019-03-19T23:53:17.076Z,0.30
2019-03-19T23:55:46.784Z,0.20
2019-03-19T23:58:16.583Z,0.20
